PWSweather.com
Personal Weather Stations
Station Observations
KILDUNLA3
Devonshire, Dunlap, IL 61525

DevonshireDunlap, IL 61525

Lat: 40.82881546, Lon: -89.62155914

Elevation: 758

Station Type: Oregon Scientific WMR100

http://jimroal.com

Latest ConditionsUpdated 5:50:56 PM CST Sunday, Nov 18, 2018
Currently Today's Max Today's Min Today's Average
Temperature 27.1°F-2.7°C 32.6°F0.3°C 27.1°F-2.7°C 30.0°F-1.1°C
Dew Point 21.1°F-6.1°C 30.9°F-0.6°C 20.6°F-6.3°C 26.0°F-3.3°C
Winds Calm Calm 5.3 mph -8.5 kmh - - 2.6 mph 4.2 kmh
Wind Gusts -- 7.8 mph12.6 kmh - -
Humidity 78% 100% 68% 86%
Pressure 30.21 in1023.0 mb 30.30 in1026.1 mb 30.20 in1022.7 mb -
Hour Temp Dew Point Humidity Winds Wind Gusts Pressure Precip Precip Rate Daily Precip Total
05:50 PM 27.1°F-2.7°C 21.1°F-6.1°C 78% Calm Calm -- 30.21 in1023.0 mb 0.00 in0.0 mm 0.00 in0.0 mm 0.00 in0.0 mm
05:45 PM 27.1°F-2.7°C 20.9°F-6.2°C 77% Calm Calm -- 30.21 in1023.0 mb 0.00 in0.0 mm 0.00 in0.0 mm 0.00 in0.0 mm
05:40 PM 27.2°F-2.7°C 20.6°F-6.3°C 76% Calm Calm -- 30.21 in1023.0 mb 0.00 in0.0 mm 0.00 in0.0 mm 0.00 in0.0 mm
05:35 PM 27.6°F-2.4°C 21.6°F-5.8°C 78% Calm Calm -- 30.21 in1023.0 mb 0.00 in0.0 mm 0.00 in0.0 mm 0.00 in0.0 mm
05:30 PM 27.8°F-2.3°C 21.5°F-5.8°C 77% Calm Calm -- 30.21 in1023.0 mb 0.00 in0.0 mm 0.00 in0.0 mm 0.00 in0.0 mm
05:25 PM 27.9°F-2.3°C 21.3°F-5.9°C 76% Calm Calm -- 30.21 in1023.0 mb 0.00 in0.0 mm 0.00 in0.0 mm 0.00 in0.0 mm
05:20 PM 28.0°F-2.2°C 21.6°F-5.8°C 76% Calm Calm -- 30.21 in1023.0 mb 0.00 in0.0 mm 0.00 in0.0 mm 0.00 in0.0 mm
05:15 PM 28.2°F-2.1°C 21.9°F-5.6°C 77% Calm Calm -- 30.21 in1023.0 mb 0.00 in0.0 mm 0.00 in0.0 mm 0.00 in0.0 mm
05:10 PM 28.1°F-2.2°C 21.4°F-5.9°C 76% Calm Calm -- 30.21 in1023.0 mb 0.00 in0.0 mm 0.00 in0.0 mm 0.00 in0.0 mm
05:05 PM 28.1°F-2.2°C 20.8°F-6.2°C 74% Calm Calm -- 30.20 in1022.7 mb 0.00 in0.0 mm 0.00 in0.0 mm 0.00 in0.0 mm
05:00 PM 28.3°F-2.1°C 20.8°F-6.2°C 73% Calm Calm -- 30.20 in1022.7 mb 0.00 in0.0 mm 0.00 in0.0 mm 0.00 in0.0 mm
04:55 PM 28.6°F-1.9°C 21.2°F-6.0°C 73% Calm Calm -- 30.20 in1022.7 mb 0.00 in0.0 mm 0.00 in0.0 mm 0.00 in0.0 mm
04:50 PM 28.7°F-1.8°C 20.8°F-6.2°C 72% Calm Calm -- 30.20 in1022.7 mb 0.00 in0.0 mm 0.00 in0.0 mm 0.00 in0.0 mm
04:45 PM 28.9°F-1.7°C 21.1°F-6.1°C 72% Calm Calm -- 30.20 in1022.7 mb 0.00 in0.0 mm 0.00 in0.0 mm 0.00 in0.0 mm
04:40 PM 29.2°F-1.6°C 21.4°F-5.9°C 72% Calm Calm 1.1 mph1.8 kmh 30.20 in1022.7 mb 0.00 in0.0 mm 0.00 in0.0 mm 0.00 in0.0 mm
04:35 PM 29.5°F-1.4°C 21.6°F-5.8°C 72% Calm Calm 1.1 mph1.8 kmh 30.20 in1022.7 mb 0.00 in0.0 mm 0.00 in0.0 mm 0.00 in0.0 mm
04:30 PM 29.7°F-1.3°C 21.8°F-5.7°C 72% Calm Calm 1.6 mph2.6 kmh 30.20 in1022.7 mb 0.00 in0.0 mm 0.00 in0.0 mm 0.00 in0.0 mm
04:25 PM 29.9°F-1.2°C 22.0°F-5.6°C 72% Calm Calm 2.0 mph3.2 kmh 30.20 in1022.7 mb 0.00 in0.0 mm 0.00 in0.0 mm 0.00 in0.0 mm
04:20 PM 30.1°F-1.1°C 22.2°F-5.4°C 72% 0.2 mph NNW0.3 kmh NNW 2.2 mph3.5 kmh 30.20 in1022.7 mb 0.00 in0.0 mm 0.00 in0.0 mm 0.00 in0.0 mm
04:15 PM 30.2°F-1.0°C 22.3°F-5.4°C 72% 1.0 mph NNW1.6 kmh NNW 2.2 mph3.5 kmh 30.20 in1022.7 mb 0.00 in0.0 mm 0.00 in0.0 mm 0.00 in0.0 mm
04:10 PM 30.3°F-0.9°C 22.2°F-5.4°C 71% Calm Calm 1.6 mph2.6 kmh 30.20 in1022.7 mb 0.00 in0.0 mm 0.00 in0.0 mm 0.00 in0.0 mm
04:05 PM 30.5°F-0.8°C 22.2°F-5.4°C 71% 0.3 mph NNW0.5 kmh NNW 1.6 mph2.6 kmh 30.20 in1022.7 mb 0.00 in0.0 mm 0.00 in0.0 mm 0.00 in0.0 mm
04:00 PM 30.6°F-0.8°C 22.3°F-5.4°C 71% 0.6 mph NNW1.0 kmh NNW 1.6 mph2.6 kmh 30.20 in1022.7 mb 0.00 in0.0 mm 0.00 in0.0 mm 0.00 in0.0 mm
03:55 PM 30.7°F-0.7°C 22.4°F-5.3°C 71% 0.6 mph NNW1.0 kmh NNW 1.6 mph2.6 kmh 30.20 in1022.7 mb 0.00 in0.0 mm 0.00 in0.0 mm 0.00 in0.0 mm
03:50 PM 31.0°F-0.6°C 22.7°F-5.2°C 71% Calm Calm 1.6 mph2.6 kmh 30.20 in1022.7 mb 0.00 in0.0 mm 0.00 in0.0 mm 0.00 in0.0 mm
03:45 PM 31.1°F-0.5°C 22.8°F-5.1°C 71% 1.1 mph NNW1.8 kmh NNW 1.6 mph2.6 kmh 30.20 in1022.7 mb 0.00 in0.0 mm 0.00 in0.0 mm 0.00 in0.0 mm
03:40 PM 31.2°F-0.4°C 22.6°F-5.2°C 70% Calm Calm 1.3 mph2.1 kmh 30.20 in1022.7 mb 0.00 in0.0 mm 0.00 in0.0 mm 0.00 in0.0 mm
03:35 PM 31.5°F-0.3°C 22.8°F-5.1°C 70% 0.1 mph NNW0.2 kmh NNW 1.3 mph2.1 kmh 30.20 in1022.7 mb 0.00 in0.0 mm 0.00 in0.0 mm 0.00 in0.0 mm
03:30 PM 31.7°F-0.2°C 23.0°F-5.0°C 70% 0.8 mph NNW1.3 kmh NNW 1.3 mph2.1 kmh 30.20 in1022.7 mb 0.00 in0.0 mm 0.00 in0.0 mm 0.00 in0.0 mm
03:25 PM 31.9°F-0.1°C 23.1°F-4.9°C 70% 0.2 mph NW0.3 kmh NW 1.6 mph2.6 kmh 30.20 in1022.7 mb 0.00 in0.0 mm 0.00 in0.0 mm 0.00 in0.0 mm
03:20 PM 32.0°F0.0°C 23.3°F-4.8°C 70% 1.0 mph NNW1.6 kmh NNW 1.6 mph2.6 kmh 30.20 in1022.7 mb 0.00 in0.0 mm 0.00 in0.0 mm 0.00 in0.0 mm
03:15 PM 32.0°F0.0°C 23.1°F-4.9°C 69% Calm Calm 1.3 mph2.1 kmh 30.20 in1022.7 mb 0.00 in0.0 mm 0.00 in0.0 mm 0.00 in0.0 mm
03:10 PM 32.0°F0.0°C 22.9°F-5.1°C 69% 1.0 mph NNW1.6 kmh NNW 1.6 mph2.6 kmh 30.20 in1022.7 mb 0.00 in0.0 mm 0.00 in0.0 mm 0.00 in0.0 mm
03:05 PM 32.0°F0.0°C 22.9°F-5.1°C 69% 0.3 mph NNW0.5 kmh NNW 2.0 mph3.2 kmh 30.20 in1022.7 mb 0.00 in0.0 mm 0.00 in0.0 mm 0.00 in0.0 mm
03:00 PM 32.0°F0.0°C 22.9°F-5.1°C 69% 0.3 mph NNW0.5 kmh NNW 2.9 mph4.7 kmh 30.20 in1022.7 mb 0.00 in0.0 mm 0.00 in0.0 mm 0.00 in0.0 mm
02:55 PM 32.0°F0.0°C 22.9°F-5.1°C 69% 1.2 mph NNW1.9 kmh NNW 3.4 mph5.5 kmh 30.20 in1022.7 mb 0.00 in0.0 mm 0.00 in0.0 mm 0.00 in0.0 mm
02:50 PM 32.0°F0.0°C 22.9°F-5.1°C 69% 2.1 mph NNW3.4 kmh NNW 4.0 mph6.4 kmh 30.21 in1023.0 mb 0.00 in0.0 mm 0.00 in0.0 mm 0.00 in0.0 mm
02:45 PM 32.0°F0.0°C 22.8°F-5.1°C 69% 2.5 mph N4.0 kmh N 4.0 mph6.4 kmh 30.21 in1023.0 mb 0.00 in0.0 mm 0.00 in0.0 mm 0.00 in0.0 mm
02:40 PM 32.0°F0.0°C 22.6°F-5.2°C 68% 2.7 mph N4.3 kmh N 4.0 mph6.4 kmh 30.21 in1023.0 mb 0.00 in0.0 mm 0.00 in0.0 mm 0.00 in0.0 mm
02:35 PM 32.0°F0.0°C 22.9°F-5.1°C 69% 3.0 mph NNW4.8 kmh NNW 4.0 mph6.4 kmh 30.21 in1023.0 mb 0.00 in0.0 mm 0.00 in0.0 mm 0.00 in0.0 mm
02:30 PM 32.0°F0.0°C 22.7°F-5.2°C 68% 1.3 mph NW2.1 kmh NW 2.7 mph4.3 kmh 30.21 in1023.0 mb 0.00 in0.0 mm 0.00 in0.0 mm 0.00 in0.0 mm
02:25 PM 31.8°F-0.1°C 22.3°F-5.4°C 68% 1.6 mph NNW2.6 kmh NNW 4.7 mph7.6 kmh 30.22 in1023.4 mb 0.00 in0.0 mm 0.00 in0.0 mm 0.00 in0.0 mm
02:20 PM 31.8°F-0.1°C 22.3°F-5.4°C 68% 3.2 mph NNW5.1 kmh NNW 5.8 mph9.3 kmh 30.22 in1023.4 mb 0.00 in0.0 mm 0.00 in0.0 mm 0.00 in0.0 mm
02:15 PM 31.9°F-0.1°C 22.7°F-5.2°C 68% 3.2 mph NNW5.1 kmh NNW 5.8 mph9.3 kmh 30.22 in1023.4 mb 0.00 in0.0 mm 0.00 in0.0 mm 0.00 in0.0 mm
02:10 PM 32.0°F0.0°C 22.7°F-5.2°C 68% 2.4 mph N3.9 kmh N 5.6 mph9.0 kmh 30.22 in1023.4 mb 0.00 in0.0 mm 0.00 in0.0 mm 0.00 in0.0 mm
02:05 PM 32.0°F0.0°C 22.6°F-5.2°C 68% 3.2 mph NNW5.1 kmh NNW 4.3 mph6.9 kmh 30.22 in1023.4 mb 0.00 in0.0 mm 0.00 in0.0 mm 0.00 in0.0 mm
02:00 PM 32.0°F0.0°C 22.9°F-5.1°C 69% 3.1 mph NNW5.0 kmh NNW 4.3 mph6.9 kmh 30.22 in1023.4 mb 0.00 in0.0 mm 0.00 in0.0 mm 0.00 in0.0 mm
01:55 PM 32.1°F0.1°C 23.0°F-5.0°C 69% 3.0 mph NNW4.8 kmh NNW 3.8 mph6.1 kmh 30.22 in1023.4 mb 0.00 in0.0 mm 0.00 in0.0 mm 0.00 in0.0 mm
01:50 PM 32.2°F0.1°C 23.1°F-4.9°C 69% 2.1 mph NNW3.4 kmh NNW 3.8 mph6.1 kmh 30.22 in1023.4 mb 0.00 in0.0 mm 0.00 in0.0 mm 0.00 in0.0 mm
01:45 PM 32.2°F0.1°C 23.1°F-4.9°C 69% 3.0 mph NNW4.8 kmh NNW 5.4 mph8.7 kmh 30.22 in1023.4 mb 0.00 in0.0 mm 0.00 in0.0 mm 0.00 in0.0 mm
01:40 PM 32.2°F0.1°C 23.4°F-4.8°C 70% 3.3 mph N5.3 kmh N 5.4 mph8.7 kmh 30.22 in1023.4 mb 0.00 in0.0 mm 0.00 in0.0 mm 0.00 in0.0 mm
01:35 PM 32.2°F0.1°C 23.5°F-4.7°C 70% 1.2 mph NNW1.9 kmh NNW 5.4 mph8.7 kmh 30.22 in1023.4 mb 0.00 in0.0 mm 0.00 in0.0 mm 0.00 in0.0 mm
01:30 PM 32.2°F0.1°C 23.4°F-4.8°C 70% 2.6 mph NNW4.2 kmh NNW 5.4 mph8.7 kmh 30.22 in1023.4 mb 0.00 in0.0 mm 0.00 in0.0 mm 0.00 in0.0 mm
01:25 PM 32.2°F0.1°C 23.5°F-4.7°C 70% 3.1 mph NNW5.0 kmh NNW 4.3 mph6.9 kmh 30.23 in1023.7 mb 0.00 in0.0 mm 0.00 in0.0 mm 0.00 in0.0 mm
01:20 PM 32.1°F0.1°C 23.4°F-4.8°C 70% 2.7 mph N4.3 kmh N 4.7 mph7.6 kmh 30.23 in1023.7 mb 0.00 in0.0 mm 0.00 in0.0 mm 0.00 in0.0 mm
01:15 PM 32.1°F0.1°C 23.4°F-4.8°C 70% 3.0 mph N4.8 kmh N 4.7 mph7.6 kmh 30.23 in1023.7 mb 0.00 in0.0 mm 0.00 in0.0 mm 0.00 in0.0 mm
01:10 PM 31.9°F-0.1°C 23.1°F-4.9°C 70% 3.0 mph N4.8 kmh N 5.4 mph8.7 kmh 30.23 in1023.7 mb 0.00 in0.0 mm 0.00 in0.0 mm 0.00 in0.0 mm
01:05 PM 31.7°F-0.2°C 22.7°F-5.2°C 69% 3.1 mph NNW5.0 kmh NNW 5.6 mph9.0 kmh 30.23 in1023.7 mb 0.00 in0.0 mm 0.00 in0.0 mm 0.00 in0.0 mm
01:00 PM 31.8°F-0.1°C 22.9°F-5.1°C 69% 3.6 mph NNW5.8 kmh NNW 5.6 mph9.0 kmh 30.23 in1023.7 mb 0.00 in0.0 mm 0.00 in0.0 mm 0.00 in0.0 mm
12:55 PM 31.9°F-0.1°C 23.0°F-5.0°C 69% 3.9 mph N6.3 kmh N 4.9 mph7.9 kmh 30.23 in1023.7 mb 0.00 in0.0 mm 0.00 in0.0 mm 0.00 in0.0 mm
12:50 PM 32.0°F0.0°C 22.9°F-5.1°C 69% 2.7 mph N4.3 kmh N 5.6 mph9.0 kmh 30.23 in1023.7 mb 0.00 in0.0 mm 0.00 in0.0 mm 0.00 in0.0 mm
12:45 PM 32.1°F0.1°C 23.1°F-4.9°C 69% 3.9 mph NNW6.3 kmh NNW 5.6 mph9.0 kmh 30.23 in1023.7 mb 0.00 in0.0 mm 0.00 in0.0 mm 0.00 in0.0 mm
12:40 PM 32.1°F0.1°C 22.9°F-5.1°C 68% 2.7 mph NNW4.3 kmh NNW 5.4 mph8.7 kmh 30.23 in1023.7 mb 0.00 in0.0 mm 0.00 in0.0 mm 0.00 in0.0 mm
12:35 PM 32.1°F0.1°C 23.0°F-5.0°C 69% 3.4 mph N5.5 kmh N 6.5 mph10.5 kmh 30.24 in1024.0 mb 0.00 in0.0 mm 0.00 in0.0 mm 0.00 in0.0 mm
12:30 PM 32.2°F0.1°C 23.2°F-4.9°C 69% 3.6 mph NNW5.8 kmh NNW 6.5 mph10.5 kmh 30.24 in1024.0 mb 0.00 in0.0 mm 0.00 in0.0 mm 0.00 in0.0 mm
12:25 PM 32.5°F0.3°C 23.9°F-4.5°C 70% 3.9 mph NNW6.3 kmh NNW 6.3 mph10.1 kmh 30.24 in1024.0 mb 0.00 in0.0 mm 0.00 in0.0 mm 0.00 in0.0 mm
12:20 PM 32.6°F0.3°C 24.5°F-4.2°C 72% 2.7 mph NNW4.3 kmh NNW 4.7 mph7.6 kmh 30.24 in1024.0 mb 0.00 in0.0 mm 0.00 in0.0 mm 0.00 in0.0 mm
12:15 PM 32.5°F0.3°C 24.3°F-4.3°C 71% 3.3 mph N5.3 kmh N 4.7 mph7.6 kmh 30.24 in1024.0 mb 0.00 in0.0 mm 0.00 in0.0 mm 0.00 in0.0 mm
12:10 PM 32.5°F0.3°C 24.1°F-4.4°C 71% 2.3 mph NNW3.7 kmh NNW 3.8 mph6.1 kmh 30.24 in1024.0 mb 0.00 in0.0 mm 0.00 in0.0 mm 0.00 in0.0 mm
12:05 PM 32.4°F0.2°C 24.0°F-4.4°C 71% 1.9 mph NNW3.1 kmh NNW 5.4 mph8.7 kmh 30.24 in1024.0 mb 0.00 in0.0 mm 0.00 in0.0 mm 0.00 in0.0 mm
12:00 PM 32.2°F0.1°C 23.3°F-4.8°C 69% 2.2 mph NNW3.5 kmh NNW 5.4 mph8.7 kmh 30.24 in1024.0 mb 0.00 in0.0 mm 0.00 in0.0 mm 0.00 in0.0 mm
11:55 AM 32.2°F0.1°C 23.3°F-4.8°C 69% 4.1 mph NNW6.6 kmh NNW 5.4 mph8.7 kmh 30.25 in1024.4 mb 0.00 in0.0 mm 0.00 in0.0 mm 0.00 in0.0 mm
11:50 AM 32.2°F0.1°C 23.4°F-4.8°C 70% 3.5 mph NNW5.6 kmh NNW 5.8 mph9.3 kmh 30.25 in1024.4 mb 0.00 in0.0 mm 0.00 in0.0 mm 0.00 in0.0 mm
11:45 AM 32.2°F0.1°C 23.9°F-4.5°C 71% 4.5 mph NNW7.2 kmh NNW 5.8 mph9.3 kmh 30.25 in1024.4 mb 0.00 in0.0 mm 0.00 in0.0 mm 0.00 in0.0 mm
11:40 AM 32.3°F0.2°C 25.1°F-3.8°C 74% 3.1 mph N5.0 kmh N 4.3 mph6.9 kmh 30.25 in1024.4 mb 0.00 in0.0 mm 0.00 in0.0 mm 0.00 in0.0 mm
11:35 AM 32.2°F0.1°C 25.0°F-3.9°C 74% 3.0 mph NNW4.8 kmh NNW 4.3 mph6.9 kmh 30.25 in1024.4 mb 0.00 in0.0 mm 0.00 in0.0 mm 0.00 in0.0 mm
11:30 AM 32.0°F0.0°C 24.6°F-4.1°C 74% 2.5 mph N4.0 kmh N 4.0 mph6.4 kmh 30.26 in1024.7 mb 0.00 in0.0 mm 0.00 in0.0 mm 0.00 in0.0 mm
11:25 AM 32.0°F0.0°C 24.6°F-4.1°C 74% 2.6 mph NNW4.2 kmh NNW 4.3 mph6.9 kmh 30.26 in1024.7 mb 0.00 in0.0 mm 0.00 in0.0 mm 0.00 in0.0 mm
11:20 AM 32.0°F0.0°C 25.1°F-3.8°C 75% 3.5 mph NNW5.6 kmh NNW 5.6 mph9.0 kmh 30.26 in1024.7 mb 0.00 in0.0 mm 0.00 in0.0 mm 0.00 in0.0 mm
11:15 AM 32.1°F0.1°C 25.6°F-3.6°C 77% 3.6 mph N5.8 kmh N 6.0 mph9.7 kmh 30.27 in1025.1 mb 0.00 in0.0 mm 0.00 in0.0 mm 0.00 in0.0 mm
11:10 AM 31.9°F-0.1°C 25.5°F-3.6°C 77% 3.9 mph N6.3 kmh N 6.0 mph9.7 kmh 30.27 in1025.1 mb 0.00 in0.0 mm 0.00 in0.0 mm 0.00 in0.0 mm
11:05 AM 31.9°F-0.1°C 25.4°F-3.7°C 77% 2.8 mph NNW4.5 kmh NNW 4.3 mph6.9 kmh 30.27 in1025.1 mb 0.00 in0.0 mm 0.00 in0.0 mm 0.00 in0.0 mm
11:00 AM 31.7°F-0.2°C 25.6°F-3.6°C 78% 3.0 mph N4.8 kmh N 5.8 mph9.3 kmh 30.27 in1025.1 mb 0.00 in0.0 mm 0.00 in0.0 mm 0.00 in0.0 mm
10:55 AM 31.6°F-0.2°C 25.2°F-3.8°C 77% 3.1 mph N5.0 kmh N 5.8 mph9.3 kmh 30.27 in1025.1 mb 0.00 in0.0 mm 0.00 in0.0 mm 0.00 in0.0 mm
10:50 AM 31.7°F-0.2°C 26.0°F-3.3°C 79% 4.0 mph N6.4 kmh N 5.8 mph9.3 kmh 30.28 in1025.4 mb 0.00 in0.0 mm 0.00 in0.0 mm 0.00 in0.0 mm
10:45 AM 31.8°F-0.1°C 26.5°F-3.1°C 81% 2.3 mph NNW3.7 kmh NNW 4.3 mph6.9 kmh 30.28 in1025.4 mb 0.00 in0.0 mm 0.00 in0.0 mm 0.00 in0.0 mm
10:40 AM 31.6°F-0.2°C 26.5°F-3.1°C 81% 2.3 mph NNW3.7 kmh NNW 3.8 mph6.1 kmh 30.28 in1025.4 mb 0.00 in0.0 mm 0.00 in0.0 mm 0.00 in0.0 mm
10:35 AM 31.5°F-0.3°C 26.7°F-2.9°C 82% 2.7 mph N4.3 kmh N 3.6 mph5.8 kmh 30.28 in1025.4 mb 0.00 in0.0 mm 0.00 in0.0 mm 0.00 in0.0 mm
10:30 AM 31.2°F-0.4°C 26.6°F-3.0°C 83% 2.0 mph N3.2 kmh N 4.0 mph6.4 kmh 30.28 in1025.4 mb 0.00 in0.0 mm 0.00 in0.0 mm 0.00 in0.0 mm
10:25 AM 31.0°F-0.6°C 26.5°F-3.1°C 83% 2.8 mph N4.5 kmh N 4.3 mph6.9 kmh 30.28 in1025.4 mb 0.00 in0.0 mm 0.00 in0.0 mm 0.00 in0.0 mm
10:20 AM 30.9°F-0.6°C 26.6°F-3.0°C 84% 2.9 mph NNW4.7 kmh NNW 4.3 mph6.9 kmh 30.29 in1025.7 mb 0.00 in0.0 mm 0.00 in0.0 mm 0.00 in0.0 mm
10:15 AM 30.8°F-0.7°C 26.7°F-2.9°C 85% 2.5 mph NNW4.0 kmh NNW 4.0 mph6.4 kmh 30.29 in1025.7 mb 0.00 in0.0 mm 0.00 in0.0 mm 0.00 in0.0 mm
10:10 AM 30.7°F-0.7°C 27.0°F-2.8°C 86% 2.2 mph N3.5 kmh N 3.8 mph6.1 kmh 30.28 in1025.4 mb 0.00 in0.0 mm 0.00 in0.0 mm 0.00 in0.0 mm
10:05 AM 30.6°F-0.8°C 27.3°F-2.6°C 87% 2.9 mph N4.7 kmh N 3.8 mph6.1 kmh 30.28 in1025.4 mb 0.00 in0.0 mm 0.00 in0.0 mm 0.00 in0.0 mm
10:00 AM 30.3°F-0.9°C 27.0°F-2.8°C 87% 2.1 mph N3.4 kmh N 3.4 mph5.5 kmh 30.29 in1025.7 mb 0.00 in0.0 mm 0.00 in0.0 mm 0.00 in0.0 mm
09:55 AM 30.2°F-1.0°C 26.8°F-2.9°C 87% 2.6 mph NNW4.2 kmh NNW 4.7 mph7.6 kmh 30.29 in1025.7 mb 0.00 in0.0 mm 0.00 in0.0 mm 0.00 in0.0 mm
09:50 AM 30.2°F-1.0°C 27.1°F-2.7°C 88% 2.4 mph NNW3.9 kmh NNW 4.7 mph7.6 kmh 30.28 in1025.4 mb 0.00 in0.0 mm 0.00 in0.0 mm 0.00 in0.0 mm
09:45 AM 30.2°F-1.0°C 27.4°F-2.6°C 89% 2.1 mph NNW3.4 kmh NNW 3.8 mph6.1 kmh 30.28 in1025.4 mb 0.00 in0.0 mm 0.00 in0.0 mm 0.00 in0.0 mm
09:40 AM 30.2°F-1.0°C 27.5°F-2.5°C 90% 1.5 mph NNW2.4 kmh NNW 2.7 mph4.3 kmh 30.29 in1025.7 mb 0.00 in0.0 mm 0.00 in0.0 mm 0.00 in0.0 mm
09:35 AM 29.9°F-1.2°C 27.4°F-2.6°C 90% 1.9 mph NNW3.1 kmh NNW 2.7 mph4.3 kmh 30.28 in1025.4 mb 0.00 in0.0 mm 0.00 in0.0 mm 0.00 in0.0 mm
09:30 AM 29.6°F-1.3°C 27.1°F-2.7°C 90% 1.8 mph NNW2.9 kmh NNW 3.1 mph5.0 kmh 30.28 in1025.4 mb 0.00 in0.0 mm 0.00 in0.0 mm 0.00 in0.0 mm
09:25 AM 29.4°F-1.4°C 26.9°F-2.8°C 90% 1.8 mph NNW2.9 kmh NNW 3.8 mph6.1 kmh 30.28 in1025.4 mb 0.00 in0.0 mm 0.00 in0.0 mm 0.00 in0.0 mm
09:20 AM 29.2°F-1.6°C 26.7°F-2.9°C 90% 2.3 mph NNW3.7 kmh NNW 3.8 mph6.1 kmh 30.28 in1025.4 mb 0.00 in0.0 mm 0.00 in0.0 mm 0.00 in0.0 mm
09:15 AM 29.0°F-1.7°C 26.7°F-2.9°C 91% 2.6 mph NNW4.2 kmh NNW 3.4 mph5.5 kmh 30.29 in1025.7 mb 0.00 in0.0 mm 0.00 in0.0 mm 0.00 in0.0 mm
09:10 AM 28.7°F-1.8°C 26.2°F-3.2°C 90% 2.5 mph N4.0 kmh N 3.4 mph5.5 kmh 30.29 in1025.7 mb 0.00 in0.0 mm 0.00 in0.0 mm 0.00 in0.0 mm
09:05 AM 28.6°F-1.9°C 26.1°F-3.3°C 90% 2.6 mph NNW4.2 kmh NNW 3.8 mph6.1 kmh 30.29 in1025.7 mb 0.00 in0.0 mm 0.00 in0.0 mm 0.00 in0.0 mm
09:00 AM 28.4°F-2.0°C 26.2°F-3.2°C 91% 2.7 mph NNW4.3 kmh NNW 3.8 mph6.1 kmh 30.29 in1025.7 mb 0.00 in0.0 mm 0.00 in0.0 mm 0.00 in0.0 mm
08:55 AM 28.5°F-1.9°C 26.3°F-3.2°C 91% 1.9 mph NNW3.1 kmh NNW 3.8 mph6.1 kmh 30.29 in1025.7 mb 0.00 in0.0 mm 0.00 in0.0 mm 0.00 in0.0 mm
08:50 AM 28.3°F-2.1°C 26.1°F-3.3°C 91% 2.7 mph NNW4.3 kmh NNW 4.3 mph6.9 kmh 30.29 in1025.7 mb 0.00 in0.0 mm 0.00 in0.0 mm 0.00 in0.0 mm
08:45 AM 28.1°F-2.2°C 25.9°F-3.4°C 91% 2.9 mph NNW4.7 kmh NNW 4.9 mph7.9 kmh 30.29 in1025.7 mb 0.00 in0.0 mm 0.00 in0.0 mm 0.00 in0.0 mm
08:40 AM 28.0°F-2.2°C 25.8°F-3.4°C 91% 3.8 mph NNW6.1 kmh NNW 5.4 mph8.7 kmh 30.29 in1025.7 mb 0.00 in0.0 mm 0.00 in0.0 mm 0.00 in0.0 mm
08:35 AM 27.9°F-2.3°C 25.4°F-3.7°C 90% 3.4 mph N5.5 kmh N 5.6 mph9.0 kmh 30.30 in1026.1 mb 0.00 in0.0 mm 0.00 in0.0 mm 0.00 in0.0 mm
08:30 AM 27.9°F-2.3°C 25.5°F-3.6°C 91% 3.4 mph NNW5.5 kmh NNW 5.8 mph9.3 kmh 30.30 in1026.1 mb 0.00 in0.0 mm 0.00 in0.0 mm 0.00 in0.0 mm
08:25 AM 27.9°F-2.3°C 25.7°F-3.5°C 91% 3.6 mph NNW5.8 kmh NNW 5.8 mph9.3 kmh 30.30 in1026.1 mb 0.00 in0.0 mm 0.00 in0.0 mm 0.00 in0.0 mm
08:20 AM 27.9°F-2.3°C 25.7°F-3.5°C 91% 3.6 mph NNW5.8 kmh NNW 4.9 mph7.9 kmh 30.29 in1025.7 mb 0.00 in0.0 mm 0.00 in0.0 mm 0.00 in0.0 mm
08:15 AM 28.0°F-2.2°C 26.2°F-3.2°C 93% 3.8 mph NNW6.1 kmh NNW 4.9 mph7.9 kmh 30.29 in1025.7 mb 0.00 in0.0 mm 0.00 in0.0 mm 0.00 in0.0 mm
08:10 AM 28.0°F-2.2°C 26.2°F-3.2°C 93% 3.2 mph NNW5.1 kmh NNW 4.9 mph7.9 kmh 30.29 in1025.7 mb 0.00 in0.0 mm 0.00 in0.0 mm 0.00 in0.0 mm
08:05 AM 28.0°F-2.2°C 26.2°F-3.2°C 93% 3.6 mph NNW5.8 kmh NNW 4.9 mph7.9 kmh 30.29 in1025.7 mb 0.00 in0.0 mm 0.00 in0.0 mm 0.00 in0.0 mm
08:00 AM 27.9°F-2.3°C 26.0°F-3.3°C 93% 3.4 mph N5.5 kmh N 5.6 mph9.0 kmh 30.29 in1025.7 mb 0.00 in0.0 mm 0.00 in0.0 mm 0.00 in0.0 mm
07:55 AM 27.9°F-2.3°C 26.0°F-3.3°C 93% 4.1 mph NNW6.6 kmh NNW 5.8 mph9.3 kmh 30.29 in1025.7 mb 0.00 in0.0 mm 0.00 in0.0 mm 0.00 in0.0 mm
07:50 AM 27.9°F-2.3°C 26.3°F-3.2°C 94% 3.4 mph NNW5.5 kmh NNW 5.8 mph9.3 kmh 30.29 in1025.7 mb 0.00 in0.0 mm 0.00 in0.0 mm 0.00 in0.0 mm
07:45 AM 28.0°F-2.2°C 26.5°F-3.1°C 94% 3.8 mph NNW6.1 kmh NNW 4.7 mph7.6 kmh 30.29 in1025.7 mb 0.00 in0.0 mm 0.00 in0.0 mm 0.00 in0.0 mm
07:40 AM 27.9°F-2.3°C 26.3°F-3.2°C 94% 2.6 mph N4.2 kmh N 5.4 mph8.7 kmh 30.29 in1025.7 mb 0.00 in0.0 mm 0.00 in0.0 mm 0.00 in0.0 mm
07:35 AM 27.9°F-2.3°C 26.3°F-3.2°C 94% 2.5 mph NNW4.0 kmh NNW 5.4 mph8.7 kmh 30.29 in1025.7 mb 0.00 in0.0 mm 0.00 in0.0 mm 0.00 in0.0 mm
07:30 AM 27.9°F-2.3°C 26.3°F-3.2°C 94% 3.6 mph NNW5.8 kmh NNW 6.0 mph9.7 kmh 30.28 in1025.4 mb 0.00 in0.0 mm 0.00 in0.0 mm 0.00 in0.0 mm
07:25 AM 27.9°F-2.3°C 26.4°F-3.1°C 94% 3.8 mph NNW6.1 kmh NNW 6.0 mph9.7 kmh 30.28 in1025.4 mb 0.00 in0.0 mm 0.00 in0.0 mm 0.00 in0.0 mm
07:20 AM 27.9°F-2.3°C 26.6°F-3.0°C 95% 3.2 mph NNW5.1 kmh NNW 5.8 mph9.3 kmh 30.28 in1025.4 mb 0.00 in0.0 mm 0.00 in0.0 mm 0.00 in0.0 mm
07:15 AM 27.9°F-2.3°C 26.6°F-3.0°C 95% 3.4 mph NNW5.5 kmh NNW 5.8 mph9.3 kmh 30.28 in1025.4 mb 0.00 in0.0 mm 0.00 in0.0 mm 0.00 in0.0 mm
07:10 AM 27.9°F-2.3°C 26.6°F-3.0°C 95% 3.2 mph NNW5.1 kmh NNW 4.7 mph7.6 kmh 30.28 in1025.4 mb 0.00 in0.0 mm 0.00 in0.0 mm 0.00 in0.0 mm
07:05 AM 27.9°F-2.3°C 26.6°F-3.0°C 95% 3.0 mph NNW4.8 kmh NNW 4.0 mph6.4 kmh 30.28 in1025.4 mb 0.00 in0.0 mm 0.00 in0.0 mm 0.00 in0.0 mm
07:00 AM 27.9°F-2.3°C 26.6°F-3.0°C 95% 3.1 mph NNW5.0 kmh NNW 4.0 mph6.4 kmh 30.28 in1025.4 mb 0.00 in0.0 mm 0.00 in0.0 mm 0.00 in0.0 mm
06:55 AM 28.0°F-2.2°C 26.7°F-2.9°C 95% 3.2 mph NNW5.1 kmh NNW 4.7 mph7.6 kmh 30.28 in1025.4 mb 0.00 in0.0 mm 0.00 in0.0 mm 0.00 in0.0 mm
06:50 AM 28.0°F-2.2°C 26.7°F-2.9°C 95% 3.3 mph NNW5.3 kmh NNW 4.9 mph7.9 kmh 30.28 in1025.4 mb 0.00 in0.0 mm 0.00 in0.0 mm 0.00 in0.0 mm
06:45 AM 28.0°F-2.2°C 26.7°F-2.9°C 95% 3.4 mph N5.5 kmh N 4.9 mph7.9 kmh 30.27 in1025.1 mb 0.00 in0.0 mm 0.00 in0.0 mm 0.00 in0.0 mm
06:40 AM 28.1°F-2.2°C 26.8°F-2.9°C 95% 3.1 mph NNW5.0 kmh NNW 4.3 mph6.9 kmh 30.27 in1025.1 mb 0.00 in0.0 mm 0.00 in0.0 mm 0.00 in0.0 mm
06:35 AM 28.2°F-2.1°C 27.0°F-2.8°C 95% 2.6 mph NNW4.2 kmh NNW 4.3 mph6.9 kmh 30.27 in1025.1 mb 0.00 in0.0 mm 0.00 in0.0 mm 0.00 in0.0 mm
06:30 AM 28.2°F-2.1°C 26.9°F-2.8°C 95% 2.9 mph NNW4.7 kmh NNW 4.3 mph6.9 kmh 30.27 in1025.1 mb 0.00 in0.0 mm 0.00 in0.0 mm 0.00 in0.0 mm
06:25 AM 28.2°F-2.1°C 27.1°F-2.7°C 95% 3.1 mph NNW5.0 kmh NNW 4.3 mph6.9 kmh 30.26 in1024.7 mb 0.00 in0.0 mm 0.00 in0.0 mm 0.00 in0.0 mm
06:20 AM 28.2°F-2.1°C 27.2°F-2.7°C 96% 2.8 mph NNW4.5 kmh NNW 4.3 mph6.9 kmh 30.26 in1024.7 mb 0.00 in0.0 mm 0.00 in0.0 mm 0.00 in0.0 mm
06:15 AM 28.3°F-2.1°C 27.3°F-2.6°C 96% 2.7 mph NNW4.3 kmh NNW 3.8 mph6.1 kmh 30.26 in1024.7 mb 0.00 in0.0 mm 0.00 in0.0 mm 0.00 in0.0 mm
06:10 AM 28.4°F-2.0°C 27.4°F-2.6°C 96% 2.7 mph NNW4.3 kmh NNW 4.3 mph6.9 kmh 30.26 in1024.7 mb 0.00 in0.0 mm 0.00 in0.0 mm 0.00 in0.0 mm
06:05 AM 28.4°F-2.0°C 27.4°F-2.6°C 96% 3.2 mph N5.1 kmh N 4.3 mph6.9 kmh 30.27 in1025.1 mb 0.00 in0.0 mm 0.00 in0.0 mm 0.00 in0.0 mm
06:00 AM 28.4°F-2.0°C 27.4°F-2.6°C 96% 3.2 mph NNW5.1 kmh NNW 4.3 mph6.9 kmh 30.27 in1025.1 mb 0.00 in0.0 mm 0.00 in0.0 mm 0.00 in0.0 mm
05:55 AM 28.4°F-2.0°C 27.4°F-2.6°C 96% 3.3 mph NNW5.3 kmh NNW 4.3 mph6.9 kmh 30.26 in1024.7 mb 0.00 in0.0 mm 0.00 in0.0 mm 0.00 in0.0 mm
05:50 AM 28.4°F-2.0°C 27.4°F-2.6°C 96% 3.3 mph N5.3 kmh N 5.4 mph8.7 kmh 30.27 in1025.1 mb 0.00 in0.0 mm 0.00 in0.0 mm 0.00 in0.0 mm
05:45 AM 28.6°F-1.9°C 27.6°F-2.4°C 96% 3.6 mph NNW5.8 kmh NNW 5.4 mph8.7 kmh 30.26 in1024.7 mb 0.00 in0.0 mm 0.00 in0.0 mm 0.00 in0.0 mm
05:40 AM 28.6°F-1.9°C 27.6°F-2.4°C 96% 3.5 mph NNW5.6 kmh NNW 5.4 mph8.7 kmh 30.26 in1024.7 mb 0.00 in0.0 mm 0.00 in0.0 mm 0.00 in0.0 mm
05:35 AM 28.6°F-1.9°C 27.6°F-2.4°C 96% 3.7 mph N6.0 kmh N 4.9 mph7.9 kmh 30.26 in1024.7 mb 0.00 in0.0 mm 0.00 in0.0 mm 0.00 in0.0 mm
05:30 AM 28.6°F-1.9°C 27.6°F-2.4°C 96% 3.4 mph N5.5 kmh N 4.7 mph7.6 kmh 30.26 in1024.7 mb 0.00 in0.0 mm 0.00 in0.0 mm 0.00 in0.0 mm
05:25 AM 28.6°F-1.9°C 27.6°F-2.4°C 96% 2.6 mph NNW4.2 kmh NNW 3.6 mph5.8 kmh 30.26 in1024.7 mb 0.00 in0.0 mm 0.00 in0.0 mm 0.00 in0.0 mm
05:20 AM 28.6°F-1.9°C 27.6°F-2.4°C 96% 2.3 mph NNW3.7 kmh NNW 4.3 mph6.9 kmh 30.26 in1024.7 mb 0.00 in0.0 mm 0.00 in0.0 mm 0.00 in0.0 mm
05:15 AM 28.6°F-1.9°C 27.6°F-2.4°C 96% 3.2 mph N5.1 kmh N 4.3 mph6.9 kmh 30.26 in1024.7 mb 0.00 in0.0 mm 0.00 in0.0 mm 0.00 in0.0 mm
05:10 AM 28.6°F-1.9°C 27.7°F-2.4°C 97% 3.2 mph NNW5.1 kmh NNW 4.7 mph7.6 kmh 30.26 in1024.7 mb 0.00 in0.0 mm 0.00 in0.0 mm 0.00 in0.0 mm
05:05 AM 28.6°F-1.9°C 27.9°F-2.3°C 97% 3.6 mph NNW5.8 kmh NNW 4.9 mph7.9 kmh 30.25 in1024.4 mb 0.00 in0.0 mm 0.00 in0.0 mm 0.00 in0.0 mm
05:00 AM 28.7°F-1.8°C 28.0°F-2.2°C 97% 3.6 mph N5.8 kmh N 4.9 mph7.9 kmh 30.25 in1024.4 mb 0.00 in0.0 mm 0.00 in0.0 mm 0.00 in0.0 mm
04:55 AM 28.8°F-1.8°C 28.0°F-2.2°C 97% 3.6 mph NNW5.8 kmh NNW 4.7 mph7.6 kmh 30.25 in1024.4 mb 0.00 in0.0 mm 0.00 in0.0 mm 0.00 in0.0 mm
04:50 AM 28.8°F-1.8°C 28.0°F-2.2°C 97% 2.7 mph NNW4.3 kmh NNW 4.0 mph6.4 kmh 30.25 in1024.4 mb 0.00 in0.0 mm 0.00 in0.0 mm 0.00 in0.0 mm
04:45 AM 28.8°F-1.8°C 28.0°F-2.2°C 97% 3.2 mph NNW5.1 kmh NNW 4.0 mph6.4 kmh 30.25 in1024.4 mb 0.00 in0.0 mm 0.00 in0.0 mm 0.00 in0.0 mm
04:40 AM 28.8°F-1.8°C 28.0°F-2.2°C 97% 2.9 mph NNW4.7 kmh NNW 4.3 mph6.9 kmh 30.25 in1024.4 mb 0.00 in0.0 mm 0.00 in0.0 mm 0.00 in0.0 mm
04:35 AM 28.8°F-1.8°C 28.1°F-2.2°C 97% 3.4 mph N5.5 kmh N 4.3 mph6.9 kmh 30.25 in1024.4 mb 0.00 in0.0 mm 0.00 in0.0 mm 0.00 in0.0 mm
04:30 AM 28.9°F-1.7°C 28.2°F-2.1°C 97% 2.5 mph NNW4.0 kmh NNW 4.3 mph6.9 kmh 30.25 in1024.4 mb 0.00 in0.0 mm 0.00 in0.0 mm 0.00 in0.0 mm
04:25 AM 28.9°F-1.7°C 28.2°F-2.1°C 97% 2.3 mph NNW3.7 kmh NNW 4.3 mph6.9 kmh 30.25 in1024.4 mb 0.00 in0.0 mm 0.00 in0.0 mm 0.00 in0.0 mm
04:20 AM 28.9°F-1.7°C 28.2°F-2.1°C 97% 2.7 mph NW4.3 kmh NW 4.7 mph7.6 kmh 30.25 in1024.4 mb 0.00 in0.0 mm 0.00 in0.0 mm 0.00 in0.0 mm
04:15 AM 28.9°F-1.7°C 28.2°F-2.1°C 97% 2.8 mph NNW4.5 kmh NNW 4.7 mph7.6 kmh 30.25 in1024.4 mb 0.00 in0.0 mm 0.00 in0.0 mm 0.00 in0.0 mm
04:10 AM 28.9°F-1.7°C 28.2°F-2.1°C 97% 2.5 mph NNW4.0 kmh NNW 4.3 mph6.9 kmh 30.25 in1024.4 mb 0.00 in0.0 mm 0.00 in0.0 mm 0.00 in0.0 mm
04:05 AM 28.9°F-1.7°C 28.2°F-2.1°C 97% 2.8 mph NNW4.5 kmh NNW 4.3 mph6.9 kmh 30.25 in1024.4 mb 0.00 in0.0 mm 0.00 in0.0 mm 0.00 in0.0 mm
04:00 AM 29.1°F-1.6°C 28.4°F-2.0°C 97% 3.1 mph NNW5.0 kmh NNW 4.0 mph6.4 kmh 30.25 in1024.4 mb 0.00 in0.0 mm 0.00 in0.0 mm 0.00 in0.0 mm
03:55 AM 29.1°F-1.6°C 28.4°F-2.0°C 97% 3.1 mph NNW5.0 kmh NNW 4.7 mph7.6 kmh 30.25 in1024.4 mb 0.00 in0.0 mm 0.00 in0.0 mm 0.00 in0.0 mm
03:50 AM 29.1°F-1.6°C 28.4°F-2.0°C 97% 3.1 mph N5.0 kmh N 4.7 mph7.6 kmh 30.25 in1024.4 mb 0.00 in0.0 mm 0.00 in0.0 mm 0.00 in0.0 mm
03:45 AM 29.2°F-1.6°C 28.5°F-1.9°C 97% 2.6 mph NNW4.2 kmh NNW 4.7 mph7.6 kmh 30.25 in1024.4 mb 0.00 in0.0 mm 0.00 in0.0 mm 0.00 in0.0 mm
03:40 AM 29.3°F-1.5°C 28.6°F-1.9°C 97% 3.3 mph N5.3 kmh N 4.7 mph7.6 kmh 30.25 in1024.4 mb 0.00 in0.0 mm 0.00 in0.0 mm 0.00 in0.0 mm
03:35 AM 29.3°F-1.5°C 28.6°F-1.9°C 97% 3.2 mph N5.1 kmh N 4.7 mph7.6 kmh 30.25 in1024.4 mb 0.00 in0.0 mm 0.00 in0.0 mm 0.00 in0.0 mm
03:30 AM 29.3°F-1.5°C 28.6°F-1.9°C 97% 3.0 mph NNW4.8 kmh NNW 5.4 mph8.7 kmh 30.25 in1024.4 mb 0.00 in0.0 mm 0.00 in0.0 mm 0.00 in0.0 mm
03:25 AM 29.5°F-1.4°C 28.8°F-1.8°C 97% 3.4 mph NNW5.5 kmh NNW 5.4 mph8.7 kmh 30.25 in1024.4 mb 0.00 in0.0 mm 0.00 in0.0 mm 0.00 in0.0 mm
03:20 AM 29.5°F-1.4°C 28.8°F-1.8°C 97% 3.4 mph N5.5 kmh N 5.6 mph9.0 kmh 30.25 in1024.4 mb 0.00 in0.0 mm 0.00 in0.0 mm 0.00 in0.0 mm
03:15 AM 29.5°F-1.4°C 28.8°F-1.8°C 97% 3.2 mph N5.1 kmh N 5.6 mph9.0 kmh 30.25 in1024.4 mb 0.00 in0.0 mm 0.00 in0.0 mm 0.00 in0.0 mm
03:10 AM 29.5°F-1.4°C 28.8°F-1.8°C 97% 3.0 mph NNW4.8 kmh NNW 5.6 mph9.0 kmh 30.25 in1024.4 mb 0.00 in0.0 mm 0.00 in0.0 mm 0.00 in0.0 mm
03:05 AM 29.5°F-1.4°C 28.8°F-1.8°C 97% 3.2 mph N5.1 kmh N 6.3 mph10.1 kmh 30.26 in1024.7 mb 0.00 in0.0 mm 0.00 in0.0 mm 0.00 in0.0 mm
03:00 AM 29.6°F-1.3°C 29.0°F-1.7°C 97% 3.2 mph N5.1 kmh N 6.3 mph10.1 kmh 30.26 in1024.7 mb 0.00 in0.0 mm 0.00 in0.0 mm 0.00 in0.0 mm
02:55 AM 29.7°F-1.3°C 29.2°F-1.6°C 98% 2.2 mph NNW3.5 kmh NNW 4.5 mph7.2 kmh 30.26 in1024.7 mb 0.00 in0.0 mm 0.00 in0.0 mm 0.00 in0.0 mm
02:50 AM 29.7°F-1.3°C 29.2°F-1.6°C 98% 3.4 mph NNW5.5 kmh NNW 4.9 mph7.9 kmh 30.26 in1024.7 mb 0.00 in0.0 mm 0.00 in0.0 mm 0.00 in0.0 mm
02:45 AM 29.8°F-1.2°C 29.3°F-1.5°C 98% 3.2 mph NNW5.1 kmh NNW 4.9 mph7.9 kmh 30.25 in1024.4 mb 0.00 in0.0 mm 0.00 in0.0 mm 0.00 in0.0 mm
02:40 AM 29.8°F-1.2°C 29.4°F-1.4°C 98% 3.0 mph N4.8 kmh N 4.0 mph6.4 kmh 30.25 in1024.4 mb 0.00 in0.0 mm 0.00 in0.0 mm 0.00 in0.0 mm
02:35 AM 29.8°F-1.2°C 29.4°F-1.4°C 98% 2.5 mph NNW4.0 kmh NNW 5.4 mph8.7 kmh 30.26 in1024.7 mb 0.00 in0.0 mm 0.00 in0.0 mm 0.00 in0.0 mm
02:30 AM 29.8°F-1.2°C 29.4°F-1.4°C 98% 3.6 mph N5.8 kmh N 5.4 mph8.7 kmh 30.26 in1024.7 mb 0.00 in0.0 mm 0.00 in0.0 mm 0.00 in0.0 mm
02:25 AM 29.8°F-1.2°C 29.4°F-1.4°C 98% 2.6 mph N4.2 kmh N 4.0 mph6.4 kmh 30.26 in1024.7 mb 0.00 in0.0 mm 0.00 in0.0 mm 0.00 in0.0 mm
02:20 AM 29.8°F-1.2°C 29.4°F-1.4°C 98% 3.0 mph N4.8 kmh N 4.0 mph6.4 kmh 30.26 in1024.7 mb 0.00 in0.0 mm 0.00 in0.0 mm 0.00 in0.0 mm
02:15 AM 30.0°F-1.1°C 29.5°F-1.4°C 98% 3.3 mph N5.3 kmh N 4.3 mph6.9 kmh 30.26 in1024.7 mb 0.00 in0.0 mm 0.00 in0.0 mm 0.00 in0.0 mm
02:10 AM 30.0°F-1.1°C 29.6°F-1.3°C 98% 2.5 mph NNW4.0 kmh NNW 4.5 mph7.2 kmh 30.26 in1024.7 mb 0.00 in0.0 mm 0.00 in0.0 mm 0.00 in0.0 mm
02:05 AM 30.0°F-1.1°C 29.6°F-1.3°C 98% 2.7 mph NNW4.3 kmh NNW 4.7 mph7.6 kmh 30.26 in1024.7 mb 0.00 in0.0 mm 0.00 in0.0 mm 0.00 in0.0 mm
02:00 AM 30.0°F-1.1°C 29.9°F-1.2°C 99% 3.3 mph NNW5.3 kmh NNW 5.4 mph8.7 kmh 30.26 in1024.7 mb 0.00 in0.0 mm 0.00 in0.0 mm 0.00 in0.0 mm
01:55 AM 30.1°F-1.1°C 29.9°F-1.2°C 99% 3.8 mph NNW6.1 kmh NNW 5.4 mph8.7 kmh 30.26 in1024.7 mb 0.00 in0.0 mm 0.00 in0.0 mm 0.00 in0.0 mm
01:50 AM 30.2°F-1.0°C 30.0°F-1.1°C 99% 3.1 mph N5.0 kmh N 4.9 mph7.9 kmh 30.26 in1024.7 mb 0.00 in0.0 mm 0.00 in0.0 mm 0.00 in0.0 mm
01:45 AM 30.2°F-1.0°C 30.0°F-1.1°C 99% 2.8 mph NNW4.5 kmh NNW 4.9 mph7.9 kmh 30.26 in1024.7 mb 0.00 in0.0 mm 0.00 in0.0 mm 0.00 in0.0 mm
01:40 AM 30.2°F-1.0°C 30.0°F-1.1°C 99% 2.7 mph NNW4.3 kmh NNW 4.9 mph7.9 kmh 30.26 in1024.7 mb 0.00 in0.0 mm 0.00 in0.0 mm 0.00 in0.0 mm
01:35 AM 30.2°F-1.0°C 30.0°F-1.1°C 99% 3.3 mph NNW5.3 kmh NNW 5.8 mph9.3 kmh 30.26 in1024.7 mb 0.00 in0.0 mm 0.00 in0.0 mm 0.00 in0.0 mm
01:30 AM 30.2°F-1.0°C 30.2°F-1.0°C 100% 3.6 mph NNW5.8 kmh NNW 5.8 mph9.3 kmh 30.26 in1024.7 mb 0.00 in0.0 mm 0.00 in0.0 mm 0.00 in0.0 mm
01:25 AM 30.2°F-1.0°C 30.2°F-1.0°C 100% 3.2 mph N5.1 kmh N 5.4 mph8.7 kmh 30.26 in1024.7 mb 0.00 in0.0 mm 0.00 in0.0 mm 0.00 in0.0 mm
01:20 AM 30.2°F-1.0°C 30.2°F-1.0°C 100% 4.3 mph N6.9 kmh N 5.6 mph9.0 kmh 30.26 in1024.7 mb 0.00 in0.0 mm 0.00 in0.0 mm 0.00 in0.0 mm
01:15 AM 30.3°F-0.9°C 30.2°F-1.0°C 100% 3.4 mph NNW5.5 kmh NNW 5.6 mph9.0 kmh 30.26 in1024.7 mb 0.00 in0.0 mm 0.00 in0.0 mm 0.00 in0.0 mm
01:10 AM 30.4°F-0.9°C 30.2°F-1.0°C 99% 3.2 mph N5.1 kmh N 5.4 mph8.7 kmh 30.26 in1024.7 mb 0.00 in0.0 mm 0.00 in0.0 mm 0.00 in0.0 mm
01:05 AM 30.4°F-0.9°C 30.2°F-1.0°C 99% 3.9 mph N6.3 kmh N 5.8 mph9.3 kmh 30.26 in1024.7 mb 0.00 in0.0 mm 0.00 in0.0 mm 0.00 in0.0 mm
01:00 AM 30.4°F-0.9°C 30.2°F-1.0°C 99% 3.3 mph NNW5.3 kmh NNW 6.5 mph10.5 kmh 30.26 in1024.7 mb 0.00 in0.0 mm 0.00 in0.0 mm 0.00 in0.0 mm
12:55 AM 30.4°F-0.9°C 30.2°F-1.0°C 99% 3.2 mph NNW5.1 kmh NNW 7.8 mph12.6 kmh 30.26 in1024.7 mb 0.00 in0.0 mm 0.00 in0.0 mm 0.00 in0.0 mm
12:50 AM 30.6°F-0.8°C 30.4°F-0.9°C 99% 5.3 mph N8.5 kmh N 7.8 mph12.6 kmh 30.26 in1024.7 mb 0.00 in0.0 mm 0.00 in0.0 mm 0.00 in0.0 mm
12:45 AM 30.6°F-0.8°C 30.5°F-0.8°C 100% 4.7 mph N7.6 kmh N 6.3 mph10.1 kmh 30.26 in1024.7 mb 0.00 in0.0 mm 0.00 in0.0 mm 0.00 in0.0 mm
12:40 AM 30.6°F-0.8°C 30.6°F-0.8°C 100% 4.1 mph N6.6 kmh N 6.3 mph10.1 kmh 30.27 in1025.1 mb 0.00 in0.0 mm 0.00 in0.0 mm 0.00 in0.0 mm
12:35 AM 30.7°F-0.7°C 30.7°F-0.7°C 100% 4.5 mph NNW7.2 kmh NNW 6.0 mph9.7 kmh 30.26 in1024.7 mb 0.00 in0.0 mm 0.00 in0.0 mm 0.00 in0.0 mm
12:30 AM 30.7°F-0.7°C 30.7°F-0.7°C 100% 4.1 mph NNW6.6 kmh NNW 6.0 mph9.7 kmh 30.27 in1025.1 mb 0.00 in0.0 mm 0.00 in0.0 mm 0.00 in0.0 mm
12:25 AM 30.7°F-0.7°C 30.7°F-0.7°C 100% 3.6 mph N5.8 kmh N 5.8 mph9.3 kmh 30.27 in1025.1 mb 0.00 in0.0 mm 0.00 in0.0 mm 0.00 in0.0 mm
12:20 AM 30.7°F-0.7°C 30.7°F-0.7°C 100% 4.5 mph N7.2 kmh N 6.3 mph10.1 kmh 30.27 in1025.1 mb 0.00 in0.0 mm 0.00 in0.0 mm 0.00 in0.0 mm
12:15 AM 30.8°F-0.7°C 30.8°F-0.7°C 100% 3.6 mph NNW5.8 kmh NNW 6.3 mph10.1 kmh 30.27 in1025.1 mb 0.00 in0.0 mm 0.00 in0.0 mm 0.00 in0.0 mm
12:10 AM 30.9°F-0.6°C 30.9°F-0.6°C 100% 3.9 mph NNW6.3 kmh NNW 6.3 mph10.1 kmh 30.27 in1025.1 mb 0.00 in0.0 mm 0.00 in0.0 mm 0.00 in0.0 mm
12:05 AM 30.9°F-0.6°C 30.9°F-0.6°C 100% 4.3 mph N6.9 kmh N 7.6 mph12.2 kmh 30.27 in1025.1 mb 0.00 in0.0 mm 0.00 in0.0 mm 0.00 in0.0 mm
12:00 AM 30.9°F-0.6°C 30.9°F-0.6°C 100% 4.7 mph NNW7.6 kmh NNW 7.6 mph12.2 kmh 30.27 in1025.1 mb 0.00 in0.0 mm 0.00 in0.0 mm 0.00 in0.0 mm